• Join FlightAware (Why Join?)
  • Login
  • US Flag 
03:41AM EDT


 

Airport Tracker/Info


-or-


 

Live Flight TrackerFlight Track Log ✈ AWE1092 ✈ 17-Apr-2013 ✈ KPHL - KRDU

Flight Track Log - Related Links

Times and Time Zones

All times are in EDT time to prevent confusion due to time zone crossing. See the AWE1092 flight status page for this flight to view local times or setup timezone preferences in your user account.

Time Position Orientation Groundspeed Altitude Reporting Facility
EDT Latitude Longitude Course Direction KTS MPH feet Rate Location/Type
10:05AM 39.8750 -75.2231 180° South 161 185 700  Level FAA TRACON SMA TRACON (SMA)
10:06AM 39.8703 -75.2011 106° East 171 197 1,600 2,400 Climbing FAA TRACON SMA TRACON (SMA)
10:06AM 39.8617 -75.1828 121° Southeast 183 211 2,300 1,920 Climbing FAA TRACON SMA TRACON (SMA)
10:06AM 39.8525 -75.1614 119° Southeast 228 262 2,900 2,100 Climbing FAA TRACON SMA TRACON (SMA)
10:07AM 39.8336 -75.1456 147° Southeast 235 270 3,700 2,520 Climbing FAA TRACON SMA TRACON (SMA)
10:07AM 39.8108 -75.1519 192° South 242 278 4,600 2,820 Climbing FAA TRACON SMA TRACON (SMA)
10:07AM 39.7925 -75.1689 215° Southwest 265 305 5,600 3,000 Climbing FAA TRACON SMA TRACON (SMA)
10:08AM 39.4570 -75.3310 194° South  Level FlightAware Approximate
10:08AM 39.7733 -75.1864 215° Southwest 273 314 6,600  Level FAA TRACON SMA TRACON (SMA)
10:08AM 39.7492 -75.2075 214° Southwest 278 320 8,000 4,020 Climbing FAA TRACON SMA TRACON (SMA)
10:08AM 39.7289 -75.2250 214° Southwest 285 328 9,300 3,900 Climbing FAA TRACON SMA TRACON (SMA)
10:09AM 39.3509 -75.3425 185° South  Level FlightAware Approximate
10:09AM 39.7072 -75.2431 213° Southwest 287 330 10,600  Level FAA TRACON SMA TRACON (SMA)
10:09AM 39.6789 -75.2675 214° Southwest 328 377 11,300 1,920 Climbing FAA TRACON SMA TRACON (SMA)
10:09AM 39.6544 -75.2875 212° Southwest 352 405 11,900 2,400 Climbing FAA TRACON SMA TRACON (SMA)
10:10AM 39.2470 -75.3667 180° South  Level FlightAware Approximate
10:10AM 39.6272 -75.3033 204° Southwest 360 414 12,900  Level FAA TRACON SMA TRACON (SMA)
10:10AM 39.5908 -75.3119 190° South 348 400 14,100 3,300 Climbing FAA TRACON SMA TRACON (SMA)
10:10AM 39.5528 -75.3189 188° South 366 421 15,300 2,640 Climbing FAA TRACON SMA TRACON (SMA)
10:11AM 39.5200 -75.3250 188° South 367 422 16,000 1,080 Climbing FAA TRACON SMA TRACON (SMA)
10:11AM 39.4883 -75.3308 188° South 368 423 16,000  Level FAA TRACON SMA TRACON (SMA)
10:11AM 39.4572 -75.3364 188° South 367 422 16,000 120 Level FAA TRACON SMA TRACON (SMA)
10:12AM 39.4264 -75.3419 188° South 366 421 16,100 300 Climbing FAA TRACON SMA TRACON (SMA)
10:12AM 39.3881 -75.3483 187° South 366 421 16,200 720 Climbing FAA TRACON SMA TRACON (SMA)
10:12AM 39.3575 -75.3542 188° South 366 421 16,600 1,200 Climbing FAA TRACON SMA TRACON (SMA)
10:13AM 39.3258 -75.3603 188° South 365 420 17,000 720 Climbing FAA TRACON SMA TRACON (SMA)
10:13AM 39.2864 -75.3672 188° South 366 421 17,100  Climbing FAA TRACON SMA TRACON (SMA)
10:13AM 39.2553 -75.3731 188° South 367 422 17,000 -180 Descending FAA TRACON SMA TRACON (SMA)
10:14AM 39.2472 -75.3744 188° South 367 422 17,000 540 Level FAA TRACON SMA TRACON (SMA)
10:15AM 39.0819 -75.4017 187° South 376 433 17,900 1,500 Climbing Washington Center
10:16AM 38.9736 -75.4181 187° South 386 444 20,500 2,400 Climbing Washington Center
10:17AM 38.8589 -75.4369 187° South 399 459 22,700 2,400 Climbing Washington Center
10:18AM 38.7403 -75.4533 186° South 422 486 25,300 1,620 Climbing Washington Center
10:19AM 38.6233 -75.4747 188° South 427 491 26,000 300 Climbing Washington Center
10:20AM 38.5047 -75.4883 185° South 427 491 26,000  Level Washington Center
10:21AM 38.3878 -75.5042 186° South 427 491 26,000  Level Washington Center
10:22AM 38.2836 -75.5625 204° Southwest 408 470 26,000  Level Washington Center
10:23AM 38.1919 -75.6444 215° Southwest 403 464 26,000  Level Washington Center
10:24AM 38.1106 -75.7236 217° Southwest 413 475 26,000  Level Washington Center
10:25AM 38.0228 -75.8131 219° Southwest 413 475 26,000  Level Washington Center
10:26AM 37.9247 -75.8944 213° Southwest 418 481 26,000  Level Washington Center
10:27AM 37.8347 -75.9783 216° Southwest 418 481 26,000  Level Washington Center
10:28AM 37.7425 -76.0672 217° Southwest 418 481 26,000  Level Washington Center
10:29AM 37.6506 -76.1531 216° Southwest 418 481 26,000  Level Washington Center
10:30AM 37.5542 -76.2336 214° Southwest 418 481 26,000  Level Washington Center
10:31AM 37.4578 -76.3192 215° Southwest 418 481 26,000 -300 Level Washington Center
10:32AM 37.3633 -76.4019 215° Southwest 423 487 25,500 -1,020 Descending Washington Center
10:33AM 37.2731 -76.4869 217° Southwest 423 487 24,000 -1,080 Descending Washington Center
10:34AM 37.1992 -76.5906 228° Southwest 409 471 23,400 -1,140 Descending Washington Center
10:35AM 37.1314 -76.6964 231° Southwest 404 465 21,800 -1,620 Descending Washington Center
10:36AM 37.0636 -76.8022 231° Southwest 399 459 20,200 -960 Descending Washington Center
10:37AM 36.9981 -76.9025 231° Southwest 394 453 20,000 -120 Descending Washington Center
10:38AM 36.9300 -77.0081 231° Southwest 394 453 20,000  Level Washington Center
10:39AM 36.8642 -77.1106 231° Southwest 389 448 20,000  Level Washington Center
10:40AM 36.8003 -77.2131 232° Southwest 389 448 20,000  Level Washington Center
10:41AM 36.7319 -77.3128 229° Southwest 389 448 20,000  Level Washington Center
10:42AM 36.6658 -77.4147 231° Southwest 384 442 20,000  Level Washington Center
10:43AM 36.5997 -77.5167 231° Southwest 384 442 20,000  Level Washington Center
10:44AM 36.5353 -77.6186 232° Southwest 384 442 20,000 -240 Level Washington Center
10:45AM 36.4689 -77.7203 231° Southwest 389 448 19,600 -1,260 Descending Washington Center
10:46AM 36.4003 -77.8292 232° Southwest 389 448 17,500 -2,100 Descending Washington Center
10:46AM 36.3617 -77.8772 225° Southwest 364 419 16,500 -1,920 Descending Washington Center
10:47AM 36.3358 -77.9228 235° Southwest 378 435 15,600 -1,920 Descending Washington Center
10:48AM 36.2669 -78.0239 230° Southwest 353 406 13,600 -1,860 Descending Washington Center
10:49AM 36.2025 -78.1197 230° Southwest 331 381 11,700 -1,740 Descending Washington Center
10:50AM 36.1592 -78.1903 233° Southwest 307 353 10,300 -1,680 Descending Washington Center
10:51AM 36.1175 -78.2817 241° Southwest 289 333 8,700 -1,560 Descending Washington Center
10:52AM 36.0925 -78.3706 251° West 283 326 7,200 -1,200 Descending Washington Center
10:53AM 36.0633 -78.4544 247° West 283 326 6,300 -1,140 Descending Washington Center
10:54AM 36.0325 -78.5303 243° Southwest 265 305 5,000 -1,320 Descending Washington Center
10:54AM 36.0214 -78.5506 236° Southwest 242 278 4,600 -1,200 Descending Washington Center
10:55AM 36.0017 -78.5961 242° Southwest 249 287 3,800 -1,020 Descending Washington Center
10:55AM 35.9903 -78.6239 243° Southwest 237 273 3,600 -540 Descending Washington Center
10:56AM 35.9769 -78.6617 246° West 236 272 3,300 -840 Descending Washington Center
10:56AM 35.9658 -78.6844 239° Southwest 189 217 2,800 -1,620 Descending Washington Center